sensor_id;sensor_type;location;lat;lon;timestamp;temperature;humidity
10192;DHT22;17580;50.850;4.504;2023-05-10T00:02:01;13.00;92.70
10192;DHT22;17580;50.850;4.504;2023-05-10T00:04:28;13.10;92.70
10192;DHT22;17580;50.850;4.504;2023-05-10T00:06:55;13.10;92.40
10192;DHT22;17580;50.850;4.504;2023-05-10T00:09:22;13.00;91.80
10192;DHT22;17580;50.850;4.504;2023-05-10T00:11:49;13.00;92.30
10192;DHT22;17580;50.850;4.504;2023-05-10T00:14:17;13.00;92.60
10192;DHT22;17580;50.850;4.504;2023-05-10T00:16:45;13.00;92.40
10192;DHT22;17580;50.850;4.504;2023-05-10T00:19:12;13.00;92.40
10192;DHT22;17580;50.850;4.504;2023-05-10T00:21:38;13.00;92.20
10192;DHT22;17580;50.850;4.504;2023-05-10T00:24:06;13.00;92.10
10192;DHT22;17580;50.850;4.504;2023-05-10T00:26:33;13.10;91.80
10192;DHT22;17580;50.850;4.504;2023-05-10T00:29:00;13.10;92.70
10192;DHT22;17580;50.850;4.504;2023-05-10T00:31:28;13.10;92.10
10192;DHT22;17580;50.850;4.504;2023-05-10T00:33:55;13.10;92.50
10192;DHT22;17580;50.850;4.504;2023-05-10T00:36:22;13.10;91.80
10192;DHT22;17580;50.850;4.504;2023-05-10T00:38:49;13.10;91.70
10192;DHT22;17580;50.850;4.504;2023-05-10T00:41:16;13.10;91.70
10192;DHT22;17580;50.850;4.504;2023-05-10T00:43:43;13.00;91.10
10192;DHT22;17580;50.850;4.504;2023-05-10T00:46:10;13.10;91.80
10192;DHT22;17580;50.850;4.504;2023-05-10T00:48:39;13.10;91.70
10192;DHT22;17580;50.850;4.504;2023-05-10T00:51:06;13.10;91.40
10192;DHT22;17580;50.850;4.504;2023-05-10T00:53:34;13.00;91.80
10192;DHT22;17580;50.850;4.504;2023-05-10T00:56:02;13.10;92.20
10192;DHT22;17580;50.850;4.504;2023-05-10T00:58:29;13.10;91.80
10192;DHT22;17580;50.850;4.504;2023-05-10T01:00:56;13.10;92.00
10192;DHT22;17580;50.850;4.504;2023-05-10T01:03:24;13.20;91.60
10192;DHT22;17580;50.850;4.504;2023-05-10T01:05:53;13.10;91.90
10192;DHT22;17580;50.850;4.504;2023-05-10T01:08:21;13.10;91.90
10192;DHT22;17580;50.850;4.504;2023-05-10T01:10:48;13.20;91.70
10192;DHT22;17580;50.850;4.504;2023-05-10T01:13:23;13.10;92.00
10192;DHT22;17580;50.850;4.504;2023-05-10T01:15:54;13.00;91.80
10192;DHT22;17580;50.850;4.504;2023-05-10T01:18:22;13.00;91.80
10192;DHT22;17580;50.850;4.504;2023-05-10T01:20:55;12.90;92.00
10192;DHT22;17580;50.850;4.504;2023-05-10T01:29:50;13.00;92.60
10192;DHT22;17580;50.850;4.504;2023-05-10T01:32:31;13.00;92.90
10192;DHT22;17580;50.850;4.504;2023-05-10T01:35:04;13.00;92.60
10192;DHT22;17580;50.850;4.504;2023-05-10T01:37:38;13.00;93.00
10192;DHT22;17580;50.850;4.504;2023-05-10T01:40:12;13.00;92.90
10192;DHT22;17580;50.850;4.504;2023-05-10T01:42:47;13.00;93.10
10192;DHT22;17580;50.850;4.504;2023-05-10T01:45:21;13.00;92.70
10192;DHT22;17580;50.850;4.504;2023-05-10T01:47:57;13.10;92.70
10192;DHT22;17580;50.850;4.504;2023-05-10T01:50:29;13.10;91.70
10192;DHT22;17580;50.850;4.504;2023-05-10T01:52:58;13.10;92.60
10192;DHT22;17580;50.850;4.504;2023-05-10T01:55:29;13.00;92.40
10192;DHT22;17580;50.850;4.504;2023-05-10T01:58:02;13.00;92.50
10192;DHT22;17580;50.850;4.504;2023-05-10T02:00:31;13.10;92.60
10192;DHT22;17580;50.850;4.504;2023-05-10T02:03:03;13.00;92.10
10192;DHT22;17580;50.850;4.504;2023-05-10T02:05:32;13.00;92.20
10192;DHT22;17580;50.850;4.504;2023-05-10T02:08:01;13.10;92.30
10192;DHT22;17580;50.850;4.504;2023-05-10T02:10:29;13.10;91.90
10192;DHT22;17580;50.850;4.504;2023-05-10T02:12:58;13.10;92.10
10192;DHT22;17580;50.850;4.504;2023-05-10T02:15:26;13.10;92.30
10192;DHT22;17580;50.850;4.504;2023-05-10T02:20:24;13.10;91.90
10192;DHT22;17580;50.850;4.504;2023-05-10T02:22:54;13.10;91.50
10192;DHT22;17580;50.850;4.504;2023-05-10T02:25:23;13.10;92.10
10192;DHT22;17580;50.850;4.504;2023-05-10T02:27:53;13.10;91.90
10192;DHT22;17580;50.850;4.504;2023-05-10T02:30:22;13.00;91.70
10192;DHT22;17580;50.850;4.504;2023-05-10T02:32:50;13.00;91.80
10192;DHT22;17580;50.850;4.504;2023-05-10T02:35:17;13.00;92.10
10192;DHT22;17580;50.850;4.504;2023-05-10T02:37:47;13.00;91.80
10192;DHT22;17580;50.850;4.504;2023-05-10T02:40:15;13.00;91.80
10192;DHT22;17580;50.850;4.504;2023-05-10T02:42:44;13.10;91.80
10192;DHT22;17580;50.850;4.504;2023-05-10T02:45:17;13.00;91.60
10192;DHT22;17580;50.850;4.504;2023-05-10T02:47:44;13.00;91.60
10192;DHT22;17580;50.850;4.504;2023-05-10T02:50:11;13.00;91.80
10192;DHT22;17580;50.850;4.504;2023-05-10T02:52:41;13.00;92.00
10192;DHT22;17580;50.850;4.504;2023-05-10T02:55:12;13.00;92.10
10192;DHT22;17580;50.850;4.504;2023-05-10T02:57:45;13.00;91.30
10192;DHT22;17580;50.850;4.504;2023-05-10T03:00:13;13.00;91.40
10192;DHT22;17580;50.850;4.504;2023-05-10T03:02:40;13.00;91.50
10192;DHT22;17580;50.850;4.504;2023-05-10T03:05:07;12.90;91.70
10192;DHT22;17580;50.850;4.504;2023-05-10T03:07:35;12.90;91.20
10192;DHT22;17580;50.850;4.504;2023-05-10T03:10:04;12.90;91.50
10192;DHT22;17580;50.850;4.504;2023-05-10T03:12:41;13.00;91.80
10192;DHT22;17580;50.850;4.504;2023-05-10T03:15:17;12.90;91.10
10192;DHT22;17580;50.850;4.504;2023-05-10T03:17:49;12.90;91.50
10192;DHT22;17580;50.850;4.504;2023-05-10T03:20:22;12.90;91.20
10192;DHT22;17580;50.850;4.504;2023-05-10T03:23:01;12.90;91.80
10192;DHT22;17580;50.850;4.504;2023-05-10T03:25:29;12.90;91.80
10192;DHT22;17580;50.850;4.504;2023-05-10T03:28:01;13.00;91.80
10192;DHT22;17580;50.850;4.504;2023-05-10T03:30:29;13.00;91.50
10192;DHT22;17580;50.850;4.504;2023-05-10T03:32:56;13.00;91.40
10192;DHT22;17580;50.850;4.504;2023-05-10T03:35:23;13.00;91.60
10192;DHT22;17580;50.850;4.504;2023-05-10T03:37:50;13.00;91.40
10192;DHT22;17580;50.850;4.504;2023-05-10T03:40:17;13.10;91.30
10192;DHT22;17580;50.850;4.504;2023-05-10T03:42:44;13.10;90.90
10192;DHT22;17580;50.850;4.504;2023-05-10T03:45:13;13.00;91.10
10192;DHT22;17580;50.850;4.504;2023-05-10T03:47:40;12.90;92.20
10192;DHT22;17580;50.850;4.504;2023-05-10T03:50:08;12.90;92.60
10192;DHT22;17580;50.850;4.504;2023-05-10T03:52:35;12.90;92.20
10192;DHT22;17580;50.850;4.504;2023-05-10T03:55:05;12.90;92.90
10192;DHT22;17580;50.850;4.504;2023-05-10T03:57:33;13.00;93.00
10192;DHT22;17580;50.850;4.504;2023-05-10T04:00:00;13.00;92.90
10192;DHT22;17580;50.850;4.504;2023-05-10T04:02:28;12.90;92.80
10192;DHT22;17580;50.850;4.504;2023-05-10T04:04:56;12.90;92.50
10192;DHT22;17580;50.850;4.504;2023-05-10T04:07:23;12.80;93.40
10192;DHT22;17580;50.850;4.504;2023-05-10T04:09:50;12.80;93.30
10192;DHT22;17580;50.850;4.504;2023-05-10T04:12:17;12.80;93.30
10192;DHT22;17580;50.850;4.504;2023-05-10T04:14:44;12.80;93.30
10192;DHT22;17580;50.850;4.504;2023-05-10T04:17:10;12.80;93.40
10192;DHT22;17580;50.850;4.504;2023-05-10T04:19:39;12.80;93.50
10192;DHT22;17580;50.850;4.504;2023-05-10T04:22:06;12.80;93.90
10192;DHT22;17580;50.850;4.504;2023-05-10T04:24:33;12.80;93.80
10192;DHT22;17580;50.850;4.504;2023-05-10T04:27:00;12.80;92.80
10192;DHT22;17580;50.850;4.504;2023-05-10T04:29:27;12.70;93.80
10192;DHT22;17580;50.850;4.504;2023-05-10T04:31:54;12.80;94.10
10192;DHT22;17580;50.850;4.504;2023-05-10T04:34:22;12.80;93.40
10192;DHT22;17580;50.850;4.504;2023-05-10T04:36:50;12.80;93.70
10192;DHT22;17580;50.850;4.504;2023-05-10T04:39:17;12.70;93.30
10192;DHT22;17580;50.850;4.504;2023-05-10T04:41:44;12.70;93.60
10192;DHT22;17580;50.850;4.504;2023-05-10T04:44:11;12.80;93.50
10192;DHT22;17580;50.850;4.504;2023-05-10T04:46:38;12.80;93.70
10192;DHT22;17580;50.850;4.504;2023-05-10T04:49:05;12.80;93.60
10192;DHT22;17580;50.850;4.504;2023-05-10T04:51:32;12.80;93.40
10192;DHT22;17580;50.850;4.504;2023-05-10T04:54:00;12.90;93.30
10192;DHT22;17580;50.850;4.504;2023-05-10T04:56:27;12.80;92.80
10192;DHT22;17580;50.850;4.504;2023-05-10T04:58:54;12.80;93.40
10192;DHT22;17580;50.850;4.504;2023-05-10T05:01:21;12.80;93.50
10192;DHT22;17580;50.850;4.504;2023-05-10T05:03:48;12.90;93.10
10192;DHT22;17580;50.850;4.504;2023-05-10T05:06:16;12.90;92.90
10192;DHT22;17580;50.850;4.504;2023-05-10T05:08:43;13.00;93.60
10192;DHT22;17580;50.850;4.504;2023-05-10T05:11:11;13.10;92.60
10192;DHT22;17580;50.850;4.504;2023-05-10T05:13:38;13.00;91.80
10192;DHT22;17580;50.850;4.504;2023-05-10T05:16:05;13.00;91.80
10192;DHT22;17580;50.850;4.504;2023-05-10T05:18:33;13.10;91.90
10192;DHT22;17580;50.850;4.504;2023-05-10T05:20:59;13.00;91.80
10192;DHT22;17580;50.850;4.504;2023-05-10T05:23:27;13.00;92.30
10192;DHT22;17580;50.850;4.504;2023-05-10T05:25:54;13.00;92.80
10192;DHT22;17580;50.850;4.504;2023-05-10T05:28:22;13.10;92.60
10192;DHT22;17580;50.850;4.504;2023-05-10T05:30:49;13.10;92.20
10192;DHT22;17580;50.850;4.504;2023-05-10T05:33:16;13.10;91.70
10192;DHT22;17580;50.850;4.504;2023-05-10T05:35:44;13.10;91.40
10192;DHT22;17580;50.850;4.504;2023-05-10T05:38:16;13.10;91.90
10192;DHT22;17580;50.850;4.504;2023-05-10T05:40:43;13.10;91.70
10192;DHT22;17580;50.850;4.504;2023-05-10T05:43:11;13.10;91.90
10192;DHT22;17580;50.850;4.504;2023-05-10T05:45:39;13.20;92.40
10192;DHT22;17580;50.850;4.504;2023-05-10T05:48:06;13.10;91.70
10192;DHT22;17580;50.850;4.504;2023-05-10T05:50:33;13.10;92.00
10192;DHT22;17580;50.850;4.504;2023-05-10T05:53:00;13.20;91.90
10192;DHT22;17580;50.850;4.504;2023-05-10T05:55:27;13.30;91.70
10192;DHT22;17580;50.850;4.504;2023-05-10T05:57:57;13.30;91.80
10192;DHT22;17580;50.850;4.504;2023-05-10T06:00:24;13.40;91.40
10192;DHT22;17580;50.850;4.504;2023-05-10T06:02:52;13.30;92.10
10192;DHT22;17580;50.850;4.504;2023-05-10T06:05:19;13.20;90.90
10192;DHT22;17580;50.850;4.504;2023-05-10T06:07:46;13.20;90.80
10192;DHT22;17580;50.850;4.504;2023-05-10T06:10:13;13.20;91.40
10192;DHT22;17580;50.850;4.504;2023-05-10T06:12:40;13.30;90.70
10192;DHT22;17580;50.850;4.504;2023-05-10T06:15:09;13.30;90.60
10192;DHT22;17580;50.850;4.504;2023-05-10T06:17:36;13.30;91.30
10192;DHT22;17580;50.850;4.504;2023-05-10T06:20:07;13.40;90.90
10192;DHT22;17580;50.850;4.504;2023-05-10T06:22:34;13.50;90.30
10192;DHT22;17580;50.850;4.504;2023-05-10T06:25:01;13.40;89.40
10192;DHT22;17580;50.850;4.504;2023-05-10T06:27:28;13.30;90.70
10192;DHT22;17580;50.850;4.504;2023-05-10T06:29:55;13.30;90.80
10192;DHT22;17580;50.850;4.504;2023-05-10T06:32:22;13.20;90.20
10192;DHT22;17580;50.850;4.504;2023-05-10T06:34:49;13.10;90.00
10192;DHT22;17580;50.850;4.504;2023-05-10T06:37:17;13.00;90.60
10192;DHT22;17580;50.850;4.504;2023-05-10T06:39:44;13.00;89.50
10192;DHT22;17580;50.850;4.504;2023-05-10T06:42:11;12.90;89.40
10192;DHT22;17580;50.850;4.504;2023-05-10T06:44:38;12.80;88.00
10192;DHT22;17580;50.850;4.504;2023-05-10T06:47:05;12.70;89.00
10192;DHT22;17580;50.850;4.504;2023-05-10T06:49:32;12.70;88.00
10192;DHT22;17580;50.850;4.504;2023-05-10T06:51:59;12.70;89.30
10192;DHT22;17580;50.850;4.504;2023-05-10T06:54:27;12.80;91.00
10192;DHT22;17580;50.850;4.504;2023-05-10T06:56:55;12.80;90.10
10192;DHT22;17580;50.850;4.504;2023-05-10T06:59:21;12.90;90.00
10192;DHT22;17580;50.850;4.504;2023-05-10T07:01:49;13.00;89.10
10192;DHT22;17580;50.850;4.504;2023-05-10T07:04:16;13.00;87.70
10192;DHT22;17580;50.850;4.504;2023-05-10T07:06:44;13.00;89.00
10192;DHT22;17580;50.850;4.504;2023-05-10T07:09:11;13.00;86.90
10192;DHT22;17580;50.850;4.504;2023-05-10T07:11:40;13.10;86.60
10192;DHT22;17580;50.850;4.504;2023-05-10T07:14:07;13.10;86.50
10192;DHT22;17580;50.850;4.504;2023-05-10T07:16:34;13.00;85.40
10192;DHT22;17580;50.850;4.504;2023-05-10T07:19:01;13.00;87.10
10192;DHT22;17580;50.850;4.504;2023-05-10T07:21:30;12.90;85.70
10192;DHT22;17580;50.850;4.504;2023-05-10T07:23:57;12.70;85.80
10192;DHT22;17580;50.850;4.504;2023-05-10T07:26:25;12.60;85.50
10192;DHT22;17580;50.850;4.504;2023-05-10T07:28:54;12.70;86.90
10192;DHT22;17580;50.850;4.504;2023-05-10T07:31:21;12.60;86.10
10192;DHT22;17580;50.850;4.504;2023-05-10T07:33:48;12.60;88.50
10192;DHT22;17580;50.850;4.504;2023-05-10T07:36:15;12.60;86.40
10192;DHT22;17580;50.850;4.504;2023-05-10T07:38:41;12.50;88.10
10192;DHT22;17580;50.850;4.504;2023-05-10T07:41:09;12.40;90.00
10192;DHT22;17580;50.850;4.504;2023-05-10T07:43:36;12.40;90.40
10192;DHT22;17580;50.850;4.504;2023-05-10T07:46:04;12.40;90.00
10192;DHT22;17580;50.850;4.504;2023-05-10T07:48:31;12.50;89.30
10192;DHT22;17580;50.850;4.504;2023-05-10T07:50:58;12.50;89.50
10192;DHT22;17580;50.850;4.504;2023-05-10T07:53:26;12.50;89.40
10192;DHT22;17580;50.850;4.504;2023-05-10T07:55:56;12.50;88.70
10192;DHT22;17580;50.850;4.504;2023-05-10T07:58:24;12.50;88.70
10192;DHT22;17580;50.850;4.504;2023-05-10T08:00:51;12.50;89.40
10192;DHT22;17580;50.850;4.504;2023-05-10T08:03:20;12.40;88.30
10192;DHT22;17580;50.850;4.504;2023-05-10T08:05:47;12.40;88.30
10192;DHT22;17580;50.850;4.504;2023-05-10T08:08:14;12.50;88.50
10192;DHT22;17580;50.850;4.504;2023-05-10T08:10:41;12.40;88.60
10192;DHT22;17580;50.850;4.504;2023-05-10T08:13:08;12.50;89.50
10192;DHT22;17580;50.850;4.504;2023-05-10T08:15:35;12.50;88.50
10192;DHT22;17580;50.850;4.504;2023-05-10T08:18:02;12.60;90.30
10192;DHT22;17580;50.850;4.504;2023-05-10T08:20:31;12.70;89.70
10192;DHT22;17580;50.850;4.504;2023-05-10T08:22:58;12.80;89.90
10192;DHT22;17580;50.850;4.504;2023-05-10T08:25:25;12.80;88.70
10192;DHT22;17580;50.850;4.504;2023-05-10T08:27:52;12.80;87.10
10192;DHT22;17580;50.850;4.504;2023-05-10T08:30:19;12.70;86.60
10192;DHT22;17580;50.850;4.504;2023-05-10T08:32:46;12.60;87.60
10192;DHT22;17580;50.850;4.504;2023-05-10T08:35:13;12.70;88.00
10192;DHT22;17580;50.850;4.504;2023-05-10T08:37:41;12.70;88.60
10192;DHT22;17580;50.850;4.504;2023-05-10T08:40:09;12.80;86.90
10192;DHT22;17580;50.850;4.504;2023-05-10T08:42:40;12.80;87.50
10192;DHT22;17580;50.850;4.504;2023-05-10T08:45:10;12.80;85.50
10192;DHT22;17580;50.850;4.504;2023-05-10T08:47:38;12.80;87.10
10192;DHT22;17580;50.850;4.504;2023-05-10T08:50:06;12.90;85.90
10192;DHT22;17580;50.850;4.504;2023-05-10T08:52:37;12.90;88.70
10192;DHT22;17580;50.850;4.504;2023-05-10T08:55:07;12.90;86.20
10192;DHT22;17580;50.850;4.504;2023-05-10T08:57:35;13.00;87.40
10192;DHT22;17580;50.850;4.504;2023-05-10T09:00:02;13.00;84.60
10192;DHT22;17580;50.850;4.504;2023-05-10T09:02:30;13.10;85.70
10192;DHT22;17580;50.850;4.504;2023-05-10T09:04:57;13.10;84.70
10192;DHT22;17580;50.850;4.504;2023-05-10T09:07:25;13.10;82.90
10192;DHT22;17580;50.850;4.504;2023-05-10T09:09:52;13.10;86.00
10192;DHT22;17580;50.850;4.504;2023-05-10T09:12:22;13.10;82.70
10192;DHT22;17580;50.850;4.504;2023-05-10T09:14:50;13.10;84.40
10192;DHT22;17580;50.850;4.504;2023-05-10T09:17:19;13.20;86.20
10192;DHT22;17580;50.850;4.504;2023-05-10T09:19:47;13.10;83.00
10192;DHT22;17580;50.850;4.504;2023-05-10T09:22:14;13.00;83.50
10192;DHT22;17580;50.850;4.504;2023-05-10T09:24:42;13.00;84.60
10192;DHT22;17580;50.850;4.504;2023-05-10T09:27:10;13.00;85.30
10192;DHT22;17580;50.850;4.504;2023-05-10T09:29:42;13.10;84.00
10192;DHT22;17580;50.850;4.504;2023-05-10T09:32:09;13.10;83.90
10192;DHT22;17580;50.850;4.504;2023-05-10T09:34:36;13.10;85.50
10192;DHT22;17580;50.850;4.504;2023-05-10T09:37:05;13.00;85.90
10192;DHT22;17580;50.850;4.504;2023-05-10T09:39:34;13.10;87.10
10192;DHT22;17580;50.850;4.504;2023-05-10T09:42:03;13.10;86.10
10192;DHT22;17580;50.850;4.504;2023-05-10T09:44:31;13.10;86.90
10192;DHT22;17580;50.850;4.504;2023-05-10T09:46:59;13.10;86.10
10192;DHT22;17580;50.850;4.504;2023-05-10T09:49:27;13.10;86.10
10192;DHT22;17580;50.850;4.504;2023-05-10T09:52:02;13.10;87.80
10192;DHT22;17580;50.850;4.504;2023-05-10T09:54:29;13.10;88.00
10192;DHT22;17580;50.850;4.504;2023-05-10T09:56:56;13.10;85.50
10192;DHT22;17580;50.850;4.504;2023-05-10T09:59:25;13.00;87.10
10192;DHT22;17580;50.850;4.504;2023-05-10T10:01:53;13.10;87.00
10192;DHT22;17580;50.850;4.504;2023-05-10T10:04:23;13.10;86.90
10192;DHT22;17580;50.850;4.504;2023-05-10T10:07:01;13.00;85.60
10192;DHT22;17580;50.850;4.504;2023-05-10T10:09:29;13.00;87.30
10192;DHT22;17580;50.850;4.504;2023-05-10T10:11:56;13.00;87.70
10192;DHT22;17580;50.850;4.504;2023-05-10T10:14:23;13.20;86.10
10192;DHT22;17580;50.850;4.504;2023-05-10T10:16:50;13.10;86.10
10192;DHT22;17580;50.850;4.504;2023-05-10T10:19:18;13.20;85.80
10192;DHT22;17580;50.850;4.504;2023-05-10T10:21:47;13.00;85.40
10192;DHT22;17580;50.850;4.504;2023-05-10T10:24:14;13.00;85.10
10192;DHT22;17580;50.850;4.504;2023-05-10T10:26:42;13.10;85.00
10192;DHT22;17580;50.850;4.504;2023-05-10T10:29:20;13.20;86.00
10192;DHT22;17580;50.850;4.504;2023-05-10T10:31:53;13.30;87.20
10192;DHT22;17580;50.850;4.504;2023-05-10T10:34:26;13.30;84.20
10192;DHT22;17580;50.850;4.504;2023-05-10T10:36:55;13.40;85.40
10192;DHT22;17580;50.850;4.504;2023-05-10T10:39:23;13.30;84.40
10192;DHT22;17580;50.850;4.504;2023-05-10T10:41:52;13.50;86.00
10192;DHT22;17580;50.850;4.504;2023-05-10T10:44:41;13.50;82.90
10192;DHT22;17580;50.850;4.504;2023-05-10T10:47:24;13.60;81.60
10192;DHT22;17580;50.850;4.504;2023-05-10T10:50:03;13.60;83.80
10192;DHT22;17580;50.850;4.504;2023-05-10T10:52:33;13.70;83.50
10192;DHT22;17580;50.850;4.504;2023-05-10T10:55:02;13.80;83.40
10192;DHT22;17580;50.850;4.504;2023-05-10T10:57:33;13.90;84.30
10192;DHT22;17580;50.850;4.504;2023-05-10T11:00:25;13.80;80.50
10192;DHT22;17580;50.850;4.504;2023-05-10T11:02:56;14.00;81.00
10192;DHT22;17580;50.850;4.504;2023-05-10T11:08:16;14.10;83.20
10192;DHT22;17580;50.850;4.504;2023-05-10T11:10:52;14.10;78.80
10192;DHT22;17580;50.850;4.504;2023-05-10T11:13:27;14.00;80.80
10192;DHT22;17580;50.850;4.504;2023-05-10T11:15:56;14.00;81.60
10192;DHT22;17580;50.850;4.504;2023-05-10T11:18:26;14.00;80.20
10192;DHT22;17580;50.850;4.504;2023-05-10T11:20:56;14.10;81.50
10192;DHT22;17580;50.850;4.504;2023-05-10T11:23:29;14.20;79.70
10192;DHT22;17580;50.850;4.504;2023-05-10T11:25:57;14.20;79.30
10192;DHT22;17580;50.850;4.504;2023-05-10T11:28:24;14.40;79.70
10192;DHT22;17580;50.850;4.504;2023-05-10T11:30:52;14.30;80.40
10192;DHT22;17580;50.850;4.504;2023-05-10T11:33:20;14.30;78.60
10192;DHT22;17580;50.850;4.504;2023-05-10T11:35:47;14.40;80.20
10192;DHT22;17580;50.850;4.504;2023-05-10T11:38:14;14.60;79.10
10192;DHT22;17580;50.850;4.504;2023-05-10T11:40:42;14.70;78.10
10192;DHT22;17580;50.850;4.504;2023-05-10T11:43:10;14.80;75.30
10192;DHT22;17580;50.850;4.504;2023-05-10T11:45:38;14.80;74.80
10192;DHT22;17580;50.850;4.504;2023-05-10T11:48:06;14.80;75.70
10192;DHT22;17580;50.850;4.504;2023-05-10T11:50:34;14.90;77.30
10192;DHT22;17580;50.850;4.504;2023-05-10T11:53:01;15.10;77.60
10192;DHT22;17580;50.850;4.504;2023-05-10T11:55:28;15.30;73.60
10192;DHT22;17580;50.850;4.504;2023-05-10T11:58:01;15.30;74.70
10192;DHT22;17580;50.850;4.504;2023-05-10T12:00:29;15.40;73.80
10192;DHT22;17580;50.850;4.504;2023-05-10T12:02:57;15.60;70.10
10192;DHT22;17580;50.850;4.504;2023-05-10T12:05:24;15.70;72.50
10192;DHT22;17580;50.850;4.504;2023-05-10T12:07:52;16.00;73.00
10192;DHT22;17580;50.850;4.504;2023-05-10T12:10:27;16.00;67.70
10192;DHT22;17580;50.850;4.504;2023-05-10T12:12:54;15.90;68.80
10192;DHT22;17580;50.850;4.504;2023-05-10T12:15:23;15.90;67.50
10192;DHT22;17580;50.850;4.504;2023-05-10T12:17:51;15.90;68.30
10192;DHT22;17580;50.850;4.504;2023-05-10T12:20:20;16.00;72.00
10192;DHT22;17580;50.850;4.504;2023-05-10T12:22:50;16.10;70.00
10192;DHT22;17580;50.850;4.504;2023-05-10T12:25:17;16.20;70.30
10192;DHT22;17580;50.850;4.504;2023-05-10T12:27:49;16.50;70.20
10192;DHT22;17580;50.850;4.504;2023-05-10T12:30:22;16.70;68.40
10192;DHT22;17580;50.850;4.504;2023-05-10T12:32:49;17.10;68.00
10192;DHT22;17580;50.850;4.504;2023-05-10T12:35:17;17.10;67.30
10192;DHT22;17580;50.850;4.504;2023-05-10T12:37:47;17.30;62.80
10192;DHT22;17580;50.850;4.504;2023-05-10T12:40:14;17.40;67.30
10192;DHT22;17580;50.850;4.504;2023-05-10T12:42:41;17.40;65.70
10192;DHT22;17580;50.850;4.504;2023-05-10T12:45:11;17.40;66.90
10192;DHT22;17580;50.850;4.504;2023-05-10T12:47:39;17.40;63.20
10192;DHT22;17580;50.850;4.504;2023-05-10T12:50:07;17.50;67.40
10192;DHT22;17580;50.850;4.504;2023-05-10T12:52:34;17.60;66.20
10192;DHT22;17580;50.850;4.504;2023-05-10T12:55:01;17.80;63.10
10192;DHT22;17580;50.850;4.504;2023-05-10T12:57:29;17.90;65.00
10192;DHT22;17580;50.850;4.504;2023-05-10T12:59:56;18.10;65.10
10192;DHT22;17580;50.850;4.504;2023-05-10T13:02:23;18.00;65.30
10192;DHT22;17580;50.850;4.504;2023-05-10T13:04:52;17.80;64.90
10192;DHT22;17580;50.850;4.504;2023-05-10T13:07:19;17.60;59.70
10192;DHT22;17580;50.850;4.504;2023-05-10T13:09:46;17.30;62.80
10192;DHT22;17580;50.850;4.504;2023-05-10T13:12:13;17.20;64.60
10192;DHT22;17580;50.850;4.504;2023-05-10T13:14:40;17.00;64.90
10192;DHT22;17580;50.850;4.504;2023-05-10T13:17:07;16.80;65.50
10192;DHT22;17580;50.850;4.504;2023-05-10T13:19:34;16.60;65.80
10192;DHT22;17580;50.850;4.504;2023-05-10T13:22:03;16.60;68.00
10192;DHT22;17580;50.850;4.504;2023-05-10T13:24:30;16.70;66.40
10192;DHT22;17580;50.850;4.504;2023-05-10T13:26:58;16.80;64.20
10192;DHT22;17580;50.850;4.504;2023-05-10T13:29:25;16.90;67.30
10192;DHT22;17580;50.850;4.504;2023-05-10T13:31:52;17.10;66.30
10192;DHT22;17580;50.850;4.504;2023-05-10T13:34:19;17.00;64.40
10192;DHT22;17580;50.850;4.504;2023-05-10T13:36:47;16.80;63.40
10192;DHT22;17580;50.850;4.504;2023-05-10T13:39:15;16.90;61.90
10192;DHT22;17580;50.850;4.504;2023-05-10T13:41:42;17.10;63.90
10192;DHT22;17580;50.850;4.504;2023-05-10T13:44:12;17.10;61.90
10192;DHT22;17580;50.850;4.504;2023-05-10T13:46:39;17.10;65.60
10192;DHT22;17580;50.850;4.504;2023-05-10T13:49:06;17.30;64.50
10192;DHT22;17580;50.850;4.504;2023-05-10T13:51:33;17.30;63.00
10192;DHT22;17580;50.850;4.504;2023-05-10T13:54:01;17.20;62.20
10192;DHT22;17580;50.850;4.504;2023-05-10T13:56:29;17.10;59.50
10192;DHT22;17580;50.850;4.504;2023-05-10T13:58:57;16.80;62.00
10192;DHT22;17580;50.850;4.504;2023-05-10T14:01:24;16.70;62.90
10192;DHT22;17580;50.850;4.504;2023-05-10T14:03:51;16.80;63.80
10192;DHT22;17580;50.850;4.504;2023-05-10T14:06:18;16.80;62.30
10192;DHT22;17580;50.850;4.504;2023-05-10T14:08:45;16.60;58.20
10192;DHT22;17580;50.850;4.504;2023-05-10T14:11:12;16.60;62.30
10192;DHT22;17580;50.850;4.504;2023-05-10T14:13:40;16.60;60.00
10192;DHT22;17580;50.850;4.504;2023-05-10T14:16:07;16.60;59.70
10192;DHT22;17580;50.850;4.504;2023-05-10T14:18:34;16.80;60.00
10192;DHT22;17580;50.850;4.504;2023-05-10T14:21:02;16.80;59.10
10192;DHT22;17580;50.850;4.504;2023-05-10T14:23:29;16.90;58.10
10192;DHT22;17580;50.850;4.504;2023-05-10T14:25:56;16.90;58.80
10192;DHT22;17580;50.850;4.504;2023-05-10T14:28:23;17.00;61.50
10192;DHT22;17580;50.850;4.504;2023-05-10T14:30:52;17.00;60.30
10192;DHT22;17580;50.850;4.504;2023-05-10T14:33:19;16.70;56.80
10192;DHT22;17580;50.850;4.504;2023-05-10T14:35:46;16.50;59.40
10192;DHT22;17580;50.850;4.504;2023-05-10T14:38:14;16.50;58.10
10192;DHT22;17580;50.850;4.504;2023-05-10T14:40:41;16.50;60.60
10192;DHT22;17580;50.850;4.504;2023-05-10T14:43:08;16.40;59.30
10192;DHT22;17580;50.850;4.504;2023-05-10T14:45:35;16.50;61.10
10192;DHT22;17580;50.850;4.504;2023-05-10T14:48:04;16.40;62.30
10192;DHT22;17580;50.850;4.504;2023-05-10T14:50:31;16.30;62.40
10192;DHT22;17580;50.850;4.504;2023-05-10T14:52:58;16.10;58.80
10192;DHT22;17580;50.850;4.504;2023-05-10T14:55:25;15.90;61.30
10192;DHT22;17580;50.850;4.504;2023-05-10T14:57:52;15.80;60.50
10192;DHT22;17580;50.850;4.504;2023-05-10T15:00:20;15.70;62.20
10192;DHT22;17580;50.850;4.504;2023-05-10T15:02:47;15.70;63.20
10192;DHT22;17580;50.850;4.504;2023-05-10T15:05:16;15.60;64.90
10192;DHT22;17580;50.850;4.504;2023-05-10T15:07:43;15.50;65.20
10192;DHT22;17580;50.850;4.504;2023-05-10T15:10:10;15.60;66.10
10192;DHT22;17580;50.850;4.504;2023-05-10T15:12:38;15.50;71.40
10192;DHT22;17580;50.850;4.504;2023-05-10T15:15:06;15.30;70.90
10192;DHT22;17580;50.850;4.504;2023-05-10T15:17:34;15.20;74.10
10192;DHT22;17580;50.850;4.504;2023-05-10T15:20:01;15.10;75.20
10192;DHT22;17580;50.850;4.504;2023-05-10T15:22:30;14.90;76.50
10192;DHT22;17580;50.850;4.504;2023-05-10T15:24:58;14.70;75.90
10192;DHT22;17580;50.850;4.504;2023-05-10T15:27:25;14.40;74.00
10192;DHT22;17580;50.850;4.504;2023-05-10T15:29:52;14.30;78.30
10192;DHT22;17580;50.850;4.504;2023-05-10T15:32:19;14.20;76.70
10192;DHT22;17580;50.850;4.504;2023-05-10T15:34:46;14.30;80.80
10192;DHT22;17580;50.850;4.504;2023-05-10T15:37:13;14.10;79.20
10192;DHT22;17580;50.850;4.504;2023-05-10T15:39:42;14.10;75.90
10192;DHT22;17580;50.850;4.504;2023-05-10T15:42:09;14.10;78.90
10192;DHT22;17580;50.850;4.504;2023-05-10T15:44:36;14.10;75.80
10192;DHT22;17580;50.850;4.504;2023-05-10T15:47:04;14.00;70.40
10192;DHT22;17580;50.850;4.504;2023-05-10T15:49:31;14.00;75.70